Montauk, New York
Current Conditions -  °F | °C
As of 4:56 PM on Wednesday 28 Jan 2015 (Local Time) from KGON Reporting Station
Clear Clear  
Wind Chill: -9°   Ceiling: Unl
Heat Index: -4°   Visibility: 10mi
Dew Point: -12°   Wind: 7mph
Humidity: 55%   Direction: 340°NNW
Pressure: 30.07"   Gusts: NA
Location:  41.04°N, 71.95°W
Report Text: KGON 282156Z 34006KT 10SM CLR M04/M12 A3007 RMK AO2 SLP182 T10441122
Loading
Personal Weather Stations






























Interactive Weather Map New forecast layout! Learn more

10-Day Weather Forecast

Advertisements
Track Severe Weather on mobile